sensor_id;sensor_type;location;lat;lon;timestamp;pressure;altitude;pressure_sealevel;temperature;humidity
19508;BME280;40157;42.566;27.526;2023-02-23T00:00:51;101050.47;;;8.49;75.26
19508;BME280;40157;42.566;27.526;2023-02-23T00:02:52;101044.47;;;8.54;75.37
19508;BME280;40157;42.566;27.526;2023-02-23T00:04:54;101067.53;;;8.67;75.48
19508;BME280;40157;42.566;27.526;2023-02-23T00:06:55;101084.03;;;8.64;75.64
19508;BME280;40157;42.566;27.526;2023-02-23T00:08:56;101081.41;;;8.64;75.94
19508;BME280;40157;42.566;27.526;2023-02-23T00:10:58;101071.00;;;8.67;75.70
19508;BME280;40157;42.566;27.526;2023-02-23T00:12:59;101067.56;;;8.68;75.65
19508;BME280;40157;42.566;27.526;2023-02-23T00:15:00;101072.75;;;8.67;75.82
19508;BME280;40157;42.566;27.526;2023-02-23T00:17:00;101070.84;;;8.61;76.06
19508;BME280;40157;42.566;27.526;2023-02-23T00:19:01;101025.47;;;8.30;76.22
19508;BME280;40157;42.566;27.526;2023-02-23T00:21:01;101040.50;;;8.38;76.45
19508;BME280;40157;42.566;27.526;2023-02-23T00:23:02;100966.25;;;8.01;76.78
19508;BME280;40157;42.566;27.526;2023-02-23T00:25:04;101074.19;;;8.57;77.14
19508;BME280;40157;42.566;27.526;2023-02-23T00:27:08;101060.72;;;8.43;77.39
19508;BME280;40157;42.566;27.526;2023-02-23T00:29:12;101068.72;;;8.48;77.54
19508;BME280;40157;42.566;27.526;2023-02-23T00:31:16;101069.59;;;8.48;77.71
19508;BME280;40157;42.566;27.526;2023-02-23T00:33:17;100994.91;;;7.99;77.48
19508;BME280;40157;42.566;27.526;2023-02-23T00:35:17;101038.53;;;8.30;77.58
19508;BME280;40157;42.566;27.526;2023-02-23T00:37:18;101043.94;;;8.37;77.60
19508;BME280;40157;42.566;27.526;2023-02-23T00:39:18;101060.66;;;8.42;77.86
19508;BME280;40157;42.566;27.526;2023-02-23T00:41:23;101040.31;;;8.31;78.26
19508;BME280;40157;42.566;27.526;2023-02-23T00:43:27;101052.81;;;8.42;78.23
19508;BME280;40157;42.566;27.526;2023-02-23T00:45:28;101044.19;;;8.43;78.11
19508;BME280;40157;42.566;27.526;2023-02-23T00:47:29;100967.22;;;8.04;78.18
19508;BME280;40157;42.566;27.526;2023-02-23T00:49:30;101070.72;;;8.57;78.22
19508;BME280;40157;42.566;27.526;2023-02-23T00:51:30;101024.91;;;8.41;78.17
19508;BME280;40157;42.566;27.526;2023-02-23T00:53:33;101063.75;;;8.57;77.97
19508;BME280;40157;42.566;27.526;2023-02-23T00:55:34;100932.97;;;7.93;77.71
19508;BME280;40157;42.566;27.526;2023-02-23T00:57:35;101054.66;;;8.73;77.75
19508;BME280;40157;42.566;27.526;2023-02-23T00:59:35;101020.00;;;8.50;77.69
19508;BME280;40157;42.566;27.526;2023-02-23T01:01:37;101028.03;;;8.56;77.89
19508;BME280;40157;42.566;27.526;2023-02-23T01:03:39;101056.66;;;8.83;77.73
19508;BME280;40157;42.566;27.526;2023-02-23T01:05:40;101033.72;;;8.73;77.22
19508;BME280;40157;42.566;27.526;2023-02-23T01:07:43;101058.69;;;8.94;77.30
19508;BME280;40157;42.566;27.526;2023-02-23T01:09:46;101033.81;;;8.76;77.47
19508;BME280;40157;42.566;27.526;2023-02-23T01:11:46;101041.22;;;8.91;77.04
19508;BME280;40157;42.566;27.526;2023-02-23T01:13:49;101010.25;;;8.75;76.89
19508;BME280;40157;42.566;27.526;2023-02-23T01:15:51;101057.97;;;8.98;77.07
19508;BME280;40157;42.566;27.526;2023-02-23T01:17:51;101014.09;;;8.57;77.28
19508;BME280;40157;42.566;27.526;2023-02-23T01:19:51;101052.50;;;8.90;77.29
19508;BME280;40157;42.566;27.526;2023-02-23T01:21:54;101036.47;;;8.78;76.93
19508;BME280;40157;42.566;27.526;2023-02-23T01:23:55;101056.81;;;8.88;77.36
19508;BME280;40157;42.566;27.526;2023-02-23T01:25:55;100975.63;;;8.51;77.09
19508;BME280;40157;42.566;27.526;2023-02-23T01:27:56;101032.22;;;8.81;77.09
19508;BME280;40157;42.566;27.526;2023-02-23T01:29:56;101045.25;;;8.80;77.07
19508;BME280;40157;42.566;27.526;2023-02-23T01:31:57;101048.06;;;8.87;76.80
19508;BME280;40157;42.566;27.526;2023-02-23T01:33:59;101052.69;;;8.96;76.79
19508;BME280;40157;42.566;27.526;2023-02-23T01:36:00;101061.44;;;8.98;77.01
19508;BME280;40157;42.566;27.526;2023-02-23T01:38:00;100998.66;;;8.65;76.80
19508;BME280;40157;42.566;27.526;2023-02-23T01:40:02;101041.94;;;8.87;76.86
19508;BME280;40157;42.566;27.526;2023-02-23T01:42:12;101042.00;;;8.88;76.75
19508;BME280;40157;42.566;27.526;2023-02-23T01:46:13;101026.06;;;8.79;76.50
19508;BME280;40157;42.566;27.526;2023-02-23T01:48:26;101043.19;;;9.00;76.46
19508;BME280;40157;42.566;27.526;2023-02-23T01:50:31;101029.94;;;8.94;76.18
19508;BME280;40157;42.566;27.526;2023-02-23T01:52:35;100994.56;;;8.75;76.14
19508;BME280;40157;42.566;27.526;2023-02-23T01:54:49;101034.44;;;8.98;76.29
19508;BME280;40157;42.566;27.526;2023-02-23T01:56:52;101006.69;;;8.73;76.47
19508;BME280;40157;42.566;27.526;2023-02-23T01:59:03;101033.19;;;8.85;76.90
19508;BME280;40157;42.566;27.526;2023-02-23T02:01:05;101050.81;;;8.92;76.65
19508;BME280;40157;42.566;27.526;2023-02-23T02:03:08;101015.38;;;8.72;76.68
19508;BME280;40157;42.566;27.526;2023-02-23T02:05:11;100997.59;;;8.58;76.79
19508;BME280;40157;42.566;27.526;2023-02-23T02:07:16;101032.13;;;8.78;76.61
19508;BME280;40157;42.566;27.526;2023-02-23T02:09:18;101046.91;;;8.76;76.76
19508;BME280;40157;42.566;27.526;2023-02-23T02:11:21;101064.53;;;8.83;76.95
19508;BME280;40157;42.566;27.526;2023-02-23T02:13:29;101054.84;;;8.79;76.88
19508;BME280;40157;42.566;27.526;2023-02-23T02:15:36;101037.06;;;8.69;76.82
19508;BME280;40157;42.566;27.526;2023-02-23T02:18:06;101058.38;;;8.81;76.74
19508;BME280;40157;42.566;27.526;2023-02-23T02:27:09;101056.50;;;8.77;76.07
19508;BME280;40157;42.566;27.526;2023-02-23T02:32:20;101050.16;;;8.69;76.59
19508;BME280;40157;42.566;27.526;2023-02-23T02:39:27;101045.69;;;8.65;76.97
19508;BME280;40157;42.566;27.526;2023-02-23T02:41:42;101021.59;;;8.45;77.24
19508;BME280;40157;42.566;27.526;2023-02-23T02:44:01;101058.81;;;8.66;77.32
19508;BME280;40157;42.566;27.526;2023-02-23T02:46:15;101053.66;;;8.69;77.59
19508;BME280;40157;42.566;27.526;2023-02-23T02:51:08;101035.00;;;8.57;77.08
19508;BME280;40157;42.566;27.526;2023-02-23T02:53:21;101025.94;;;8.44;77.27
19508;BME280;40157;42.566;27.526;2023-02-23T02:55:26;101060.56;;;8.67;77.18
19508;BME280;40157;42.566;27.526;2023-02-23T02:57:27;101028.66;;;8.49;76.88
19508;BME280;40157;42.566;27.526;2023-02-23T02:59:29;101049.19;;;8.65;76.63
19508;BME280;40157;42.566;27.526;2023-02-23T03:01:48;101046.47;;;8.62;76.38
19508;BME280;40157;42.566;27.526;2023-02-23T03:04:22;101065.06;;;8.72;76.11
19508;BME280;40157;42.566;27.526;2023-02-23T03:06:48;101049.09;;;8.62;76.14
19508;BME280;40157;42.566;27.526;2023-02-23T03:11:38;101057.78;;;8.61;76.43
19508;BME280;40157;42.566;27.526;2023-02-23T03:16:58;101050.69;;;8.57;76.23
19508;BME280;40157;42.566;27.526;2023-02-23T03:19:30;101064.03;;;8.66;76.27
19508;BME280;40157;42.566;27.526;2023-02-23T03:27:25;101068.16;;;8.58;77.13
19508;BME280;40157;42.566;27.526;2023-02-23T03:30:03;101067.03;;;8.50;77.42
19508;BME280;40157;42.566;27.526;2023-02-23T03:32:40;101080.34;;;8.58;77.62
19508;BME280;40157;42.566;27.526;2023-02-23T03:35:12;101068.88;;;8.54;78.19
19508;BME280;40157;42.566;27.526;2023-02-23T03:37:40;101086.44;;;8.58;78.21
19508;BME280;40157;42.566;27.526;2023-02-23T03:40:09;101087.38;;;8.60;78.67
19508;BME280;40157;42.566;27.526;2023-02-23T03:42:38;101061.94;;;8.55;78.73
19508;BME280;40157;42.566;27.526;2023-02-23T03:45:11;101040.81;;;8.47;78.75
19508;BME280;40157;42.566;27.526;2023-02-23T03:47:36;101067.44;;;8.64;79.17
19508;BME280;40157;42.566;27.526;2023-02-23T03:49:58;101037.38;;;8.48;79.65
19508;BME280;40157;42.566;27.526;2023-02-23T03:52:24;101091.38;;;8.78;79.80
19508;BME280;40157;42.566;27.526;2023-02-23T03:54:53;101075.59;;;8.75;79.81
19508;BME280;40157;42.566;27.526;2023-02-23T03:57:15;101084.66;;;8.86;79.88
19508;BME280;40157;42.566;27.526;2023-02-23T03:59:44;101089.19;;;8.93;79.87
19508;BME280;40157;42.566;27.526;2023-02-23T04:02:06;101080.44;;;8.91;80.23
19508;BME280;40157;42.566;27.526;2023-02-23T04:04:27;101076.97;;;8.92;80.29
19508;BME280;40157;42.566;27.526;2023-02-23T04:06:47;101092.00;;;8.99;80.20
19508;BME280;40157;42.566;27.526;2023-02-23T04:09:06;101097.34;;;9.04;80.24
19508;BME280;40157;42.566;27.526;2023-02-23T04:13:53;101098.31;;;9.07;80.42
19508;BME280;40157;42.566;27.526;2023-02-23T04:15:59;101098.41;;;9.11;80.60
19508;BME280;40157;42.566;27.526;2023-02-23T04:18:03;101089.59;;;9.07;80.52
19508;BME280;40157;42.566;27.526;2023-02-23T04:20:04;101075.44;;;9.00;80.75
19508;BME280;40157;42.566;27.526;2023-02-23T04:22:06;101097.63;;;9.13;80.65
19508;BME280;40157;42.566;27.526;2023-02-23T04:24:07;101096.97;;;9.22;80.95
19508;BME280;40157;42.566;27.526;2023-02-23T04:26:08;101086.28;;;9.13;81.21
19508;BME280;40157;42.566;27.526;2023-02-23T04:28:09;101101.38;;;9.23;81.47
19508;BME280;40157;42.566;27.526;2023-02-23T04:30:10;101083.66;;;9.13;81.81
19508;BME280;40157;42.566;27.526;2023-02-23T04:32:17;101097.09;;;9.26;81.87
19508;BME280;40157;42.566;27.526;2023-02-23T04:34:17;101076.91;;;9.21;81.97
19508;BME280;40157;42.566;27.526;2023-02-23T04:36:18;101095.69;;;9.38;82.09
19508;BME280;40157;42.566;27.526;2023-02-23T04:38:19;101080.63;;;9.31;81.99
19508;BME280;40157;42.566;27.526;2023-02-23T04:40:20;101108.84;;;9.41;82.19
19508;BME280;40157;42.566;27.526;2023-02-23T04:42:21;101069.91;;;9.20;82.44
19508;BME280;40157;42.566;27.526;2023-02-23T04:44:22;101106.81;;;9.31;82.95
19508;BME280;40157;42.566;27.526;2023-02-23T04:46:22;101053.00;;;9.08;83.26
19508;BME280;40157;42.566;27.526;2023-02-23T04:48:23;101083.06;;;9.23;83.32
19508;BME280;40157;42.566;27.526;2023-02-23T04:50:24;101033.59;;;9.00;83.23
19508;BME280;40157;42.566;27.526;2023-02-23T04:52:24;101088.78;;;9.41;83.30
19508;BME280;40157;42.566;27.526;2023-02-23T04:54:25;101099.56;;;9.54;83.01
19508;BME280;40157;42.566;27.526;2023-02-23T04:56:26;101047.41;;;9.26;82.63
19508;BME280;40157;42.566;27.526;2023-02-23T04:58:26;101081.22;;;9.52;82.57
19508;BME280;40157;42.566;27.526;2023-02-23T05:00:27;101083.94;;;9.57;82.38
19508;BME280;40157;42.566;27.526;2023-02-23T05:02:28;101115.75;;;9.72;82.22
19508;BME280;40157;42.566;27.526;2023-02-23T05:04:29;101117.63;;;9.76;82.31
19508;BME280;40157;42.566;27.526;2023-02-23T05:06:30;101112.47;;;9.79;82.31
19508;BME280;40157;42.566;27.526;2023-02-23T05:08:31;101017.78;;;9.29;82.17
19508;BME280;40157;42.566;27.526;2023-02-23T05:10:31;101079.81;;;9.65;82.49
19508;BME280;40157;42.566;27.526;2023-02-23T05:12:32;101095.81;;;9.77;82.15
19508;BME280;40157;42.566;27.526;2023-02-23T05:14:32;101124.03;;;9.88;82.43
19508;BME280;40157;42.566;27.526;2023-02-23T05:16:32;101026.81;;;9.40;82.72
19508;BME280;40157;42.566;27.526;2023-02-23T05:18:33;101067.78;;;9.73;82.67
19508;BME280;40157;42.566;27.526;2023-02-23T05:20:33;101110.47;;;10.06;83.17
19508;BME280;40157;42.566;27.526;2023-02-23T05:22:34;101118.63;;;10.16;83.24
19508;BME280;40157;42.566;27.526;2023-02-23T05:24:35;101094.03;;;10.11;82.82
19508;BME280;40157;42.566;27.526;2023-02-23T05:26:36;101102.97;;;10.19;82.48
19508;BME280;40157;42.566;27.526;2023-02-23T05:28:38;101126.03;;;10.33;81.97
19508;BME280;40157;42.566;27.526;2023-02-23T05:30:38;101112.66;;;10.24;81.71
19508;BME280;40157;42.566;27.526;2023-02-23T05:32:39;101105.84;;;10.30;81.96
19508;BME280;40157;42.566;27.526;2023-02-23T05:34:39;101158.19;;;10.64;81.58
19508;BME280;40157;42.566;27.526;2023-02-23T05:36:41;101123.91;;;10.54;81.30
19508;BME280;40157;42.566;27.526;2023-02-23T05:38:41;101059.19;;;10.15;80.79
19508;BME280;40157;42.566;27.526;2023-02-23T05:40:44;101080.31;;;10.22;80.32
19508;BME280;40157;42.566;27.526;2023-02-23T05:42:44;101088.44;;;10.32;80.29
19508;BME280;40157;42.566;27.526;2023-02-23T05:44:44;101140.56;;;10.57;80.07
19508;BME280;40157;42.566;27.526;2023-02-23T05:46:45;101177.84;;;10.83;79.87
19508;BME280;40157;42.566;27.526;2023-02-23T05:48:46;101165.41;;;10.74;79.77
19508;BME280;40157;42.566;27.526;2023-02-23T05:50:47;101176.81;;;10.74;79.82
19508;BME280;40157;42.566;27.526;2023-02-23T05:52:47;101177.69;;;10.75;79.82
19508;BME280;40157;42.566;27.526;2023-02-23T05:54:48;101140.47;;;10.53;79.84
19508;BME280;40157;42.566;27.526;2023-02-23T05:56:48;101197.25;;;10.89;79.79
19508;BME280;40157;42.566;27.526;2023-02-23T05:58:51;101184.97;;;10.88;79.59
19508;BME280;40157;42.566;27.526;2023-02-23T06:00:52;101198.31;;;10.98;79.74
19508;BME280;40157;42.566;27.526;2023-02-23T06:02:52;101197.16;;;10.86;79.57
19508;BME280;40157;42.566;27.526;2023-02-23T06:04:53;101203.44;;;10.93;79.56
19508;BME280;40157;42.566;27.526;2023-02-23T06:06:55;101140.63;;;10.60;79.61
19508;BME280;40157;42.566;27.526;2023-02-23T06:08:55;101193.88;;;10.95;79.71
19508;BME280;40157;42.566;27.526;2023-02-23T06:10:56;101204.38;;;10.97;79.70
19508;BME280;40157;42.566;27.526;2023-02-23T06:12:56;101192.88;;;10.90;79.75
19508;BME280;40157;42.566;27.526;2023-02-23T06:14:57;101141.63;;;10.65;79.70
19508;BME280;40157;42.566;27.526;2023-02-23T06:16:57;101212.53;;;11.09;79.69
19508;BME280;40157;42.566;27.526;2023-02-23T06:18:59;101221.38;;;11.13;79.61
19508;BME280;40157;42.566;27.526;2023-02-23T06:21:01;101202.69;;;10.99;79.87
19508;BME280;40157;42.566;27.526;2023-02-23T06:23:03;101234.31;;;11.05;80.02
19508;BME280;40157;42.566;27.526;2023-02-23T06:25:04;101181.13;;;10.74;80.13
19508;BME280;40157;42.566;27.526;2023-02-23T06:27:05;101200.56;;;10.82;80.45
19508;BME280;40157;42.566;27.526;2023-02-23T06:29:06;101210.06;;;10.77;80.63
19508;BME280;40157;42.566;27.526;2023-02-23T06:31:06;101212.84;;;10.83;80.68
19508;BME280;40157;42.566;27.526;2023-02-23T06:33:07;101237.72;;;11.01;80.66
19508;BME280;40157;42.566;27.526;2023-02-23T06:35:08;101242.78;;;10.93;80.96
19508;BME280;40157;42.566;27.526;2023-02-23T06:37:08;101208.03;;;10.65;81.21
19508;BME280;40157;42.566;27.526;2023-02-23T06:39:10;101209.00;;;10.69;81.31
19508;BME280;40157;42.566;27.526;2023-02-23T06:41:11;101153.91;;;10.31;81.58
19508;BME280;40157;42.566;27.526;2023-02-23T06:43:11;101215.16;;;10.69;81.68
19508;BME280;40157;42.566;27.526;2023-02-23T06:45:12;101214.25;;;10.69;81.75
19508;BME280;40157;42.566;27.526;2023-02-23T06:47:12;101242.69;;;10.88;82.01
19508;BME280;40157;42.566;27.526;2023-02-23T06:49:13;101255.75;;;10.87;82.04
19508;BME280;40157;42.566;27.526;2023-02-23T06:51:13;101247.72;;;10.79;82.27
19508;BME280;40157;42.566;27.526;2023-02-23T06:53:13;101229.25;;;10.74;82.20
19508;BME280;40157;42.566;27.526;2023-02-23T06:55:14;101212.50;;;10.68;82.45
19508;BME280;40157;42.566;27.526;2023-02-23T06:57:16;101187.47;;;10.44;82.29
19508;BME280;40157;42.566;27.526;2023-02-23T06:59:17;101223.06;;;10.71;82.40
19508;BME280;40157;42.566;27.526;2023-02-23T07:01:18;101229.31;;;10.78;82.47
19508;BME280;40157;42.566;27.526;2023-02-23T07:03:18;101240.84;;;10.84;82.41
19508;BME280;40157;42.566;27.526;2023-02-23T07:05:19;101214.25;;;10.69;82.54
19508;BME280;40157;42.566;27.526;2023-02-23T07:07:20;101244.53;;;10.92;82.62
19508;BME280;40157;42.566;27.526;2023-02-23T07:09:21;101257.66;;;10.94;82.46
19508;BME280;40157;42.566;27.526;2023-02-23T07:11:21;101243.78;;;10.98;82.33
19508;BME280;40157;42.566;27.526;2023-02-23T07:13:22;101262.44;;;11.12;82.44
19508;BME280;40157;42.566;27.526;2023-02-23T07:15:22;101239.63;;;11.08;82.25
19508;BME280;40157;42.566;27.526;2023-02-23T07:17:23;101262.44;;;11.12;82.02
19508;BME280;40157;42.566;27.526;2023-02-23T07:19:23;101246.44;;;11.00;82.08
19508;BME280;40157;42.566;27.526;2023-02-23T07:21:24;101175.44;;;10.52;82.19
19508;BME280;40157;42.566;27.526;2023-02-23T07:23:24;101242.84;;;10.95;81.94
19508;BME280;40157;42.566;27.526;2023-02-23T07:25:26;101274.66;;;11.10;82.20
19508;BME280;40157;42.566;27.526;2023-02-23T07:27:27;101246.44;;;11.00;82.34
19508;BME280;40157;42.566;27.526;2023-02-23T07:29:27;101232.41;;;10.98;82.01
19508;BME280;40157;42.566;27.526;2023-02-23T07:31:28;101264.31;;;11.16;82.07
19508;BME280;40157;42.566;27.526;2023-02-23T07:33:28;101267.91;;;11.21;82.17
19508;BME280;40157;42.566;27.526;2023-02-23T07:35:29;101212.94;;;10.88;81.94
19508;BME280;40157;42.566;27.526;2023-02-23T07:37:29;101241.28;;;11.03;81.98
19508;BME280;40157;42.566;27.526;2023-02-23T07:39:30;101268.00;;;11.24;81.88
19508;BME280;40157;42.566;27.526;2023-02-23T07:41:31;101232.53;;;11.04;82.12
19508;BME280;40157;42.566;27.526;2023-02-23T07:43:31;101250.44;;;11.22;81.84
19508;BME280;40157;42.566;27.526;2023-02-23T07:45:32;101272.56;;;11.33;81.72
19508;BME280;40157;42.566;27.526;2023-02-23T07:47:33;101254.75;;;11.20;81.68
19508;BME280;40157;42.566;27.526;2023-02-23T07:49:34;101254.81;;;11.21;81.35
19508;BME280;40157;42.566;27.526;2023-02-23T07:51:34;101263.53;;;11.22;81.55
19508;BME280;40157;42.566;27.526;2023-02-23T07:53:34;101263.53;;;11.22;81.61
19508;BME280;40157;42.566;27.526;2023-02-23T07:55:35;101195.38;;;10.85;81.48
19508;BME280;40157;42.566;27.526;2023-02-23T07:57:37;101181.13;;;10.74;81.58
19508;BME280;40157;42.566;27.526;2023-02-23T07:59:38;101202.56;;;10.92;81.31
19508;BME280;40157;42.566;27.526;2023-02-23T08:01:39;101271.72;;;11.36;81.49
19508;BME280;40157;42.566;27.526;2023-02-23T08:03:39;101199.28;;;11.03;80.94
19508;BME280;40157;42.566;27.526;2023-02-23T08:05:40;101282.50;;;11.48;81.23
19508;BME280;40157;42.566;27.526;2023-02-23T08:07:40;101265.84;;;11.46;81.15
19508;BME280;40157;42.566;27.526;2023-02-23T08:09:41;101281.72;;;11.54;81.18
19508;BME280;40157;42.566;27.526;2023-02-23T08:11:41;101277.63;;;11.66;80.96
19508;BME280;40157;42.566;27.526;2023-02-23T08:13:41;101277.69;;;11.70;79.79
19508;BME280;40157;42.566;27.526;2023-02-23T08:15:42;101306.06;;;11.86;79.31
19508;BME280;40157;42.566;27.526;2023-02-23T08:17:43;101289.41;;;11.87;79.56
19508;BME280;40157;42.566;27.526;2023-02-23T08:19:43;101237.03;;;11.49;79.35
19508;BME280;40157;42.566;27.526;2023-02-23T08:21:44;101272.75;;;11.85;79.36
19508;BME280;40157;42.566;27.526;2023-02-23T08:23:44;101300.19;;;11.98;79.28
19508;BME280;40157;42.566;27.526;2023-02-23T08:25:45;101262.06;;;11.76;78.79
19508;BME280;40157;42.566;27.526;2023-02-23T08:27:45;101273.56;;;11.81;78.35
19508;BME280;40157;42.566;27.526;2023-02-23T08:29:46;101310.94;;;12.10;78.53
19508;BME280;40157;42.566;27.526;2023-02-23T08:31:47;101228.63;;;11.69;78.55
19508;BME280;40157;42.566;27.526;2023-02-23T08:33:48;101308.28;;;12.09;78.68
19508;BME280;40157;42.566;27.526;2023-02-23T08:35:49;101293.31;;;12.05;78.04
19508;BME280;40157;42.566;27.526;2023-02-23T08:37:49;101322.63;;;12.26;77.68
19508;BME280;40157;42.566;27.526;2023-02-23T08:39:50;101325.03;;;12.15;77.84
19508;BME280;40157;42.566;27.526;2023-02-23T08:41:50;101329.63;;;12.24;78.36
19508;BME280;40157;42.566;27.526;2023-02-23T08:43:51;101345.41;;;12.27;77.79
19508;BME280;40157;42.566;27.526;2023-02-23T08:45:52;101233.88;;;11.69;77.97
19508;BME280;40157;42.566;27.526;2023-02-23T08:47:53;101343.75;;;12.29;77.54
19508;BME280;40157;42.566;27.526;2023-02-23T08:49:54;101311.78;;;12.08;77.62
19508;BME280;40157;42.566;27.526;2023-02-23T08:51:54;101341.81;;;12.22;77.56
19508;BME280;40157;42.566;27.526;2023-02-23T08:53:55;101344.31;;;12.14;77.85
19508;BME280;40157;42.566;27.526;2023-02-23T08:56:00;101327.63;;;12.14;78.18
19508;BME280;40157;42.566;27.526;2023-02-23T08:58:01;101288.56;;;11.88;78.25
19508;BME280;40157;42.566;27.526;2023-02-23T09:00:04;101332.00;;;12.12;77.85
19508;BME280;40157;42.566;27.526;2023-02-23T09:02:13;101327.59;;;12.11;78.10
19508;BME280;40157;42.566;27.526;2023-02-23T09:04:14;101357.72;;;12.28;77.99
19508;BME280;40157;42.566;27.526;2023-02-23T09:06:19;101337.31;;;12.15;77.71
19508;BME280;40157;42.566;27.526;2023-02-23T09:08:20;101340.88;;;12.18;77.14
19508;BME280;40157;42.566;27.526;2023-02-23T09:10:22;101310.72;;;11.99;77.44
19508;BME280;40157;42.566;27.526;2023-02-23T09:12:28;101287.88;;;11.95;77.58
19508;BME280;40157;42.566;27.526;2023-02-23T09:14:28;101332.22;;;12.23;77.65
19508;BME280;40157;42.566;27.526;2023-02-23T09:16:29;101304.88;;;12.13;77.55
19508;BME280;40157;42.566;27.526;2023-02-23T09:18:29;101359.66;;;12.38;77.10
19508;BME280;40157;42.566;27.526;2023-02-23T09:20:32;101356.94;;;12.34;76.86
19508;BME280;40157;42.566;27.526;2023-02-23T09:22:32;101356.00;;;12.30;76.45
19508;BME280;40157;42.566;27.526;2023-02-23T09:24:34;101385.09;;;12.38;76.42
19508;BME280;40157;42.566;27.526;2023-02-23T09:26:35;101357.53;;;12.19;76.81
19508;BME280;40157;42.566;27.526;2023-02-23T09:28:39;101390.31;;;12.36;75.93
19508;BME280;40157;42.566;27.526;2023-02-23T09:30:41;101388.50;;;12.34;76.06
19508;BME280;40157;42.566;27.526;2023-02-23T09:32:44;101384.09;;;12.31;76.62
19508;BME280;40157;42.566;27.526;2023-02-23T09:34:44;101400.66;;;12.29;78.09
19508;BME280;40157;42.566;27.526;2023-02-23T09:36:47;101382.56;;;12.43;77.50
19508;BME280;40157;42.566;27.526;2023-02-23T09:38:50;101380.91;;;12.48;77.74
19508;BME280;40157;42.566;27.526;2023-02-23T09:40:54;101394.03;;;12.48;77.24
19508;BME280;40157;42.566;27.526;2023-02-23T09:43:17;101391.47;;;12.51;77.26
19508;BME280;40157;42.566;27.526;2023-02-23T09:45:36;101391.47;;;12.51;77.02
19508;BME280;40157;42.566;27.526;2023-02-23T09:50:02;101393.16;;;12.49;76.77
19508;BME280;40157;42.566;27.526;2023-02-23T09:52:03;101400.16;;;12.47;76.96
19508;BME280;40157;42.566;27.526;2023-02-23T09:54:11;101369.25;;;12.35;77.02
19508;BME280;40157;42.566;27.526;2023-02-23T09:57:02;101382.66;;;12.49;77.00
19508;BME280;40157;42.566;27.526;2023-02-23T09:58:37;101388.03;;;12.55;76.75
19508;BME280;40157;42.566;27.526;2023-02-23T10:00:42;101407.53;;;12.66;76.75
19508;BME280;40157;42.566;27.526;2023-02-23T10:05:08;101388.31;;;12.70;76.57
19508;BME280;40157;42.566;27.526;2023-02-23T10:09:51;101391.03;;;12.75;76.41
19508;BME280;40157;42.566;27.526;2023-02-23T10:12:01;101391.97;;;12.78;76.50
19508;BME280;40157;42.566;27.526;2023-02-23T10:16:42;101374.31;;;12.71;77.66
19508;BME280;40157;42.566;27.526;2023-02-23T10:19:11;101367.44;;;12.80;76.48
19508;BME280;40157;42.566;27.526;2023-02-23T10:24:29;101388.84;;;13.01;76.00
19508;BME280;40157;42.566;27.526;2023-02-23T10:26:16;101382.75;;;13.04;76.10
19508;BME280;40157;42.566;27.526;2023-02-23T10:28:20;101367.84;;;13.04;75.39
19508;BME280;40157;42.566;27.526;2023-02-23T10:30:27;101390.84;;;13.14;75.66
19508;BME280;40157;42.566;27.526;2023-02-23T10:34:53;101398.78;;;13.18;75.78
19508;BME280;40157;42.566;27.526;2023-02-23T10:37:01;101378.56;;;13.17;75.55
19508;BME280;40157;42.566;27.526;2023-02-23T10:39:06;101396.25;;;13.22;75.53
19508;BME280;40157;42.566;27.526;2023-02-23T10:41:08;101385.66;;;13.19;75.58
19508;BME280;40157;42.566;27.526;2023-02-23T10:43:10;101398.09;;;13.29;75.19
19508;BME280;40157;42.566;27.526;2023-02-23T10:45:14;101379.47;;;13.19;74.79
19508;BME280;40157;42.566;27.526;2023-02-23T10:47:28;101382.16;;;13.22;74.70
19508;BME280;40157;42.566;27.526;2023-02-23T10:49:39;101399.81;;;13.26;74.87
19508;BME280;40157;42.566;27.526;2023-02-23T10:51:42;101393.56;;;13.19;75.40
19508;BME280;40157;42.566;27.526;2023-02-23T10:53:44;101401.50;;;13.22;74.03
19508;BME280;40157;42.566;27.526;2023-02-23T10:55:46;101406.81;;;13.27;74.41
19508;BME280;40157;42.566;27.526;2023-02-23T10:57:47;101344.78;;;12.88;74.52
19508;BME280;40157;42.566;27.526;2023-02-23T11:02:23;101400.41;;;13.09;74.34
19508;BME280;40157;42.566;27.526;2023-02-23T11:04:31;101402.88;;;13.00;74.41
19508;BME280;40157;42.566;27.526;2023-02-23T11:06:36;101397.53;;;12.97;74.78
19508;BME280;40157;42.566;27.526;2023-02-23T11:08:42;101326.63;;;12.53;75.02
19508;BME280;40157;42.566;27.526;2023-02-23T11:13:04;101405.97;;;12.76;75.38
19508;BME280;40157;42.566;27.526;2023-02-23T11:17:32;101408.69;;;12.81;76.37
19508;BME280;40157;42.566;27.526;2023-02-23T11:19:35;101385.72;;;12.72;76.18
19508;BME280;40157;42.566;27.526;2023-02-23T11:21:37;101358.22;;;12.54;76.72
19508;BME280;40157;42.566;27.526;2023-02-23T11:23:39;101386.50;;;12.66;76.54
19508;BME280;40157;42.566;27.526;2023-02-23T11:25:42;101401.63;;;12.78;76.37
19508;BME280;40157;42.566;27.526;2023-02-23T11:27:48;101401.50;;;12.72;76.06
19508;BME280;40157;42.566;27.526;2023-02-23T11:29:53;101384.66;;;12.62;76.29
19508;BME280;40157;42.566;27.526;2023-02-23T11:31:56;101387.22;;;12.57;76.47
19508;BME280;40157;42.566;27.526;2023-02-23T11:33:58;101345.75;;;12.43;76.66
19508;BME280;40157;42.566;27.526;2023-02-23T11:35:59;101397.03;;;12.66;76.45
19508;BME280;40157;42.566;27.526;2023-02-23T11:40:22;101386.25;;;12.54;76.65
19508;BME280;40157;42.566;27.526;2023-02-23T11:42:25;101329.56;;;12.21;76.91
19508;BME280;40157;42.566;27.526;2023-02-23T11:44:26;101402.97;;;12.56;77.09